ΕΜΥ, Εθνική Μετεωρολογική Υπηρεσία - Δελτία Καιρού, Προγνώσεις

ΑΕΡΟΝΑΥΤΙΛΙΑ

GREEK AIRPORTS CODES

LGMG 151300Z 00000KT CAVOK 29/04 Q1017=

EUROPEAN AIRPORTS CODES

LFPO 151300Z 25018KT 9999 -RA BKN035 BKN043 13/06 Q1012TEMPO 3500 RA SCT030TCU=